Time;durP1;ratioP1;P1;durP2;ratioP2;P2;SDS_P1;SDS_P2;PMS_P1;PMS_P2;Temp;Humidity;BMP_temperature;BMP_pressure;BME280_temperature;BME280_humidity;BME280_pressure;Samples;Min_cycle;Max_cycle;Signal;HPM_P1;HPM_P2
2023/01/13 00:02:11;;;;;;;8.82;6.03;;;;;;;2.35;70.22;94137.72;4970255;28;20149;-84
2023/01/13 00:04:36;;;;;;;6.80;6.07;;;;;;;2.56;69.81;94169.34;4966123;28;20391;-84
2023/01/13 00:07:01;;;;;;;8.57;6.53;;;;;;;2.47;69.77;94156.72;4975735;28;20058;-84
2023/01/13 00:09:39;;;;;;;9.30;7.07;;;;;;;2.25;68.97;94105.41;4961359;28;20052;-84
2023/01/13 00:12:05;;;;;;;7.82;6.38;;;;;;;2.43;69.47;94150.41;4966174;28;20078;-84
2023/01/13 00:14:34;;;;;;;6.40;5.70;;;;;;;2.59;69.36;94174.13;4965152;28;20030;-84
2023/01/13 00:17:00;;;;;;;8.95;6.70;;;;;;;2.52;68.96;94142.81;4975446;28;20042;-84
2023/01/13 00:19:26;;;;;;;8.88;6.18;;;;;;;2.01;69.18;94079.53;4970622;28;20148;-84
2023/01/13 00:21:51;;;;;;;9.18;6.30;;;;;;;2.83;68.78;94176.09;4969421;28;20028;-84
2023/01/13 00:24:17;;;;;;;6.63;5.38;;;;;;;2.29;68.18;94083.66;4965859;28;20551;-84
2023/01/13 00:26:42;;;;;;;8.50;6.50;;;;;;;2.92;67.92;94171.13;4969878;28;20038;-84
2023/01/13 00:29:08;;;;;;;6.45;4.93;;;;;;;2.51;68.02;94131.53;4969679;28;21029;-84
2023/01/13 00:31:33;;;;;;;7.53;5.25;;;;;;;2.71;67.56;94154.47;4965783;28;20097;-84
2023/01/13 00:33:59;;;;;;;8.35;5.47;;;;;;;2.67;66.92;94136.88;4967996;28;20042;-84
2023/01/13 00:36:25;;;;;;;9.63;6.68;;;;;;;2.88;67.44;94170.84;4969065;28;20471;-84
2023/01/13 00:38:50;;;;;;;5.72;4.95;;;;;;;2.94;67.11;94163.75;4971581;28;20039;-84
2023/01/13 00:41:18;;;;;;;6.43;4.70;;;;;;;2.93;67.05;94164.84;4970451;28;20037;-84
2023/01/13 00:43:45;;;;;;;5.28;4.78;;;;;;;2.66;67.62;94143.94;4969581;28;20030;-84
2023/01/13 00:46:13;;;;;;;5.65;4.57;;;;;;;3.09;66.85;94166.47;4967071;28;20026;-85
2023/01/13 00:48:38;;;;;;;5.20;4.00;;;;;;;3.15;65.74;94162.81;4969003;28;20145;-85
2023/01/13 00:51:16;;;;;;;5.57;4.82;;;;;;;3.08;66.01;94157.00;4964311;28;20093;-85
2023/01/13 00:53:44;;;;;;;5.32;4.80;;;;;;;2.81;66.08;94124.84;4967996;28;20523;-85
2023/01/13 00:56:19;;;;;;;5.80;4.93;;;;;;;2.73;67.18;94162.13;4969743;28;20054;-84
2023/01/13 00:58:45;;;;;;;7.20;6.15;;;;;;;2.59;67.68;94138.16;4973652;28;20495;-84
2023/01/13 01:01:17;;;;;;;5.07;4.38;;;;;;;2.58;67.51;94141.03;4968538;28;20035;-84
2023/01/13 01:03:43;;;;;;;7.50;5.30;;;;;;;2.40;68.92;94137.75;4973103;28;20042;-84
2023/01/13 01:06:14;;;;;;;6.38;5.13;;;;;;;1.70;68.50;94019.25;4988106;28;20042;-84
2023/01/13 01:08:40;;;;;;;7.28;5.60;;;;;;;2.51;68.48;94144.66;4986288;28;20157;-84
2023/01/13 01:11:11;;;;;;;8.60;6.30;;;;;;;2.31;69.00;94113.03;4970240;28;20037;-84
2023/01/13 01:13:37;;;;;;;6.90;5.13;;;;;;;2.55;68.45;94159.94;4988662;28;20025;-84
2023/01/13 01:16:14;;;;;;;7.18;5.75;;;;;;;2.61;68.27;94146.56;4987109;28;20049;-85
2023/01/13 01:18:42;;;;;;;7.30;5.90;;;;;;;2.68;68.09;94151.59;4990938;28;20113;-85
2023/01/13 01:21:08;;;;;;;6.75;5.60;;;;;;;1.91;68.10;94040.13;4971838;28;20049;-84
2023/01/13 01:23:35;;;;;;;6.47;5.78;;;;;;;2.69;67.43;94147.91;4993028;28;20462;-84
2023/01/13 01:26:10;;;;;;;8.52;5.22;;;;;;;1.68;66.90;93973.09;4988209;28;20046;-85
2023/01/13 01:28:37;;;;;;;11.18;5.80;;;;;;;2.87;66.71;94142.22;4990430;28;20066;-84
2023/01/13 01:31:10;;;;;;;7.22;5.60;;;;;;;2.41;67.23;94096.56;4993763;28;20049;-83
2023/01/13 01:33:36;;;;;;;6.68;4.88;;;;;;;2.75;67.17;94141.63;4979523;28;20050;-84
2023/01/13 01:36:02;;;;;;;7.35;5.43;;;;;;;2.51;67.12;94104.47;4990215;28;20045;-85
2023/01/13 01:38:28;;;;;;;6.95;5.32;;;;;;;2.67;66.93;94100.88;4991168;28;21103;-84
2023/01/13 01:40:54;;;;;;;6.05;5.15;;;;;;;2.62;66.08;94086.94;4972868;28;21091;-84
2023/01/13 01:46:06;;;;;;;7.80;6.82;;;;;;;2.71;67.11;94130.03;4992262;28;20124;-84
2023/01/13 01:48:39;;;;;;;7.50;5.72;;;;;;;2.10;67.39;94035.28;4974593;28;20491;-84
2023/01/13 01:51:11;;;;;;;8.65;5.93;;;;;;;2.52;66.55;94085.84;4992535;28;20046;-84
2023/01/13 01:53:37;;;;;;;6.25;5.20;;;;;;;2.65;66.64;94096.94;4975286;28;20511;-85
2023/01/13 01:56:04;;;;;;;7.70;5.50;;;;;;;2.76;67.05;94128.25;4992940;28;20487;-85
2023/01/13 01:59:01;;;;;;;8.60;6.13;;;;;;;2.78;67.20;94125.38;4992601;28;20105;-83
2023/01/13 02:01:27;;;;;;;8.52;5.40;;;;;;;2.45;67.24;94103.66;4976038;28;20615;-84
2023/01/13 02:04:02;;;;;;;7.82;5.70;;;;;;;2.74;67.39;94124.31;4976032;28;20428;-84
2023/01/13 02:06:29;;;;;;;8.57;6.28;;;;;;;1.84;67.60;94002.81;4970004;28;20042;-85
2023/01/13 02:09:01;;;;;;;8.23;6.10;;;;;;;1.95;68.19;94016.81;4987081;28;20058;-84
2023/01/13 02:14:14;;;;;;;8.90;6.40;;;;;;;2.97;66.33;94131.75;4991386;28;20037;-84
2023/01/13 02:16:47;;;;;;;6.35;4.93;;;;;;;2.79;66.48;94103.31;4988739;28;20030;-84
2023/01/13 02:19:40;;;;;;;5.63;3.97;;;;;;;2.97;66.12;94118.59;4974775;28;20100;-84
2023/01/13 02:22:24;;;;;;;5.55;4.90;;;;;;;3.02;65.61;94121.25;4979787;28;20316;-84
2023/01/13 02:25:20;;;;;;;7.88;5.60;;;;;;;2.92;66.38;94126.47;4971725;28;20034;-84
2023/01/13 02:27:58;;;;;;;7.47;5.55;;;;;;;2.92;65.79;94113.34;4974740;28;20046;-84
2023/01/13 02:33:51;;;;;;;6.28;5.10;;;;;;;2.75;67.28;94121.41;4987984;28;20068;-85
2023/01/13 02:36:41;;;;;;;5.38;4.50;;;;;;;2.74;66.87;94121.69;4977650;28;20046;-84
2023/01/13 02:39:31;;;;;;;5.07;4.30;;;;;;;2.49;67.29;94089.00;4980766;28;20495;-84
2023/01/13 02:45:07;;;;;;;6.50;5.38;;;;;;;2.60;67.04;94086.44;4991757;28;20091;-84
2023/01/13 02:47:37;;;;;;;5.97;4.53;;;;;;;2.90;66.39;94123.28;4973842;28;20503;-84
2023/01/13 02:50:12;;;;;;;7.45;5.07;;;;;;;2.25;66.59;94016.97;4970246;28;20052;-85
2023/01/13 02:53:07;;;;;;;5.13;4.25;;;;;;;1.62;65.81;93900.69;4983715;28;20076;-85
2023/01/13 02:55:39;;;;;;;5.63;4.50;;;;;;;1.60;65.56;93905.41;4989678;28;20165;-84
2023/01/13 02:58:09;;;;;;;4.75;3.85;;;;;;;2.15;65.67;93990.69;4979656;28;20065;-85
2023/01/13 03:00:35;;;;;;;5.55;4.07;;;;;;;3.13;65.60;94128.13;4990343;28;20049;-84
2023/01/13 03:03:02;;;;;;;5.82;4.43;;;;;;;2.99;65.52;94116.50;4986650;28;20042;-84
2023/01/13 03:05:31;;;;;;;5.50;4.25;;;;;;;3.14;65.49;94127.06;4970721;28;20044;-85
2023/01/13 03:08:08;;;;;;;5.32;3.95;;;;;;;2.88;65.96;94120.16;4977745;28;20034;-84
2023/01/13 03:10:49;;;;;;;4.72;4.07;;;;;;;3.01;65.86;94124.91;4977529;28;20088;-85
2023/01/13 03:13:29;;;;;;;5.28;4.40;;;;;;;2.60;66.15;94071.44;4975164;28;20014;-84
2023/01/13 03:16:03;;;;;;;5.78;5.13;;;;;;;2.96;66.42;94128.31;4972056;28;20049;-84
2023/01/13 03:18:35;;;;;;;4.32;3.90;;;;;;;3.16;65.46;94122.34;4988927;28;20041;-84
2023/01/13 03:21:05;;;;;;;4.78;4.00;;;;;;;3.14;65.25;94126.25;4971219;28;20088;-84
2023/01/13 03:23:38;;;;;;;4.82;4.32;;;;;;;3.09;65.03;94115.72;4987369;28;20042;-84
2023/01/13 03:26:11;;;;;;;5.85;4.68;;;;;;;2.40;65.00;94014.38;4988051;28;20042;-84
2023/01/13 03:28:41;;;;;;;5.40;4.45;;;;;;;2.93;65.62;94091.28;4987642;28;20485;-84
2023/01/13 03:31:13;;;;;;;5.30;4.72;;;;;;;3.19;64.71;94134.16;4991175;28;20030;-84
2023/01/13 03:33:44;;;;;;;4.20;3.80;;;;;;;2.82;64.74;94071.25;4980605;28;20030;-84
2023/01/13 03:36:13;;;;;;;4.22;3.70;;;;;;;2.56;65.56;94069.59;4973357;28;20232;-84
2023/01/13 03:38:50;;;;;;;5.25;3.97;;;;;;;3.17;65.03;94134.44;4978491;28;20494;-83
2023/01/13 03:41:51;;;;;;;4.90;4.13;;;;;;;2.66;65.05;94059.91;4971285;28;20042;-84
2023/01/13 03:44:41;;;;;;;5.25;4.40;;;;;;;2.87;65.56;94108.06;4965220;28;20117;-85
2023/01/13 03:47:20;;;;;;;5.50;4.63;;;;;;;2.88;66.37;94130.66;4971226;28;20042;-84
2023/01/13 03:50:14;;;;;;;5.80;4.32;;;;;;;2.59;67.03;94116.34;4973137;28;20049;-84
2023/01/13 03:52:46;;;;;;;4.95;4.10;;;;;;;3.00;66.24;94141.72;4969311;28;20040;-84
2023/01/13 03:55:21;;;;;;;6.63;5.68;;;;;;;3.16;65.74;94137.31;4993530;28;20046;-84
2023/01/13 03:57:59;;;;;;;5.80;4.32;;;;;;;3.10;65.84;94133.88;4980529;28;20042;-84
2023/01/13 04:00:30;;;;;;;5.00;4.50;;;;;;;2.93;65.56;94118.34;4981334;28;20042;-84
2023/01/13 04:03:04;;;;;;;5.18;4.68;;;;;;;2.59;65.87;94056.75;4972703;28;20101;-84
2023/01/13 04:05:32;;;;;;;7.82;5.93;;;;;;;3.02;65.67;94116.00;4989851;28;20057;-84
2023/01/13 04:08:20;;;;;;;5.70;5.10;;;;;;;2.88;65.03;94076.28;4980697;28;20466;-84
2023/01/13 04:11:03;;;;;;;7.18;5.63;;;;;;;3.30;64.94;94139.19;4972444;28;20359;-85
2023/01/13 04:13:34;;;;;;;6.68;5.10;;;;;;;3.29;64.68;94134.19;4975362;28;20041;-85
2023/01/13 04:16:00;;;;;;;6.15;5.03;;;;;;;2.81;65.66;94101.19;4977736;28;20037;-84
2023/01/13 04:18:31;;;;;;;4.53;3.92;;;;;;;3.25;65.35;94151.53;4978936;28;20038;-84
2023/01/13 04:20:59;;;;;;;6.13;5.05;;;;;;;3.21;65.62;94150.47;4988573;28;20072;-85
2023/01/13 04:23:26;;;;;;;4.75;4.25;;;;;;;3.19;64.73;94111.28;4977260;28;20538;-85
2023/01/13 04:25:52;;;;;;;6.18;5.57;;;;;;;3.43;64.32;94147.66;4972045;28;20244;-84
2023/01/13 04:28:18;;;;;;;6.43;4.47;;;;;;;3.38;64.22;94137.88;4973196;28;21187;-84
2023/01/13 04:30:44;;;;;;;5.88;5.35;;;;;;;3.52;64.11;94151.34;4972865;28;20428;-85
2023/01/13 04:33:11;;;;;;;5.78;5.00;;;;;;;3.45;64.00;94137.66;4988582;28;20084;-84
2023/01/13 04:35:37;;;;;;;5.22;4.65;;;;;;;3.63;63.55;94160.81;4988129;28;20035;-85
2023/01/13 04:38:08;;;;;;;5.32;4.75;;;;;;;2.94;63.75;94056.84;4988509;28;20471;-85
2023/01/13 04:40:34;;;;;;;5.95;4.97;;;;;;;3.33;63.54;94117.63;4963188;28;20092;-84
2023/01/13 04:42:59;;;;;;;4.85;4.35;;;;;;;2.96;63.35;94064.47;4974137;28;20022;-84
2023/01/13 04:45:25;;;;;;;4.82;4.32;;;;;;;3.47;62.82;94115.31;4990080;28;20051;-85
2023/01/13 04:47:50;;;;;;;5.95;5.10;;;;;;;2.65;63.13;94005.00;4986640;28;20096;-85
2023/01/13 04:50:19;;;;;;;5.35;4.75;;;;;;;3.68;63.30;94160.81;4977533;28;20053;-85
2023/01/13 04:52:46;;;;;;;5.13;4.63;;;;;;;3.65;62.56;94148.19;4971695;28;20030;-85
2023/01/13 04:55:11;;;;;;;5.57;5.03;;;;;;;3.35;63.36;94126.06;4978207;28;20020;-84
2023/01/13 04:57:37;;;;;;;6.20;5.20;;;;;;;2.96;63.42;94067.09;4974363;28;20030;-85
2023/01/13 05:00:07;;;;;;;6.20;5.20;;;;;;;2.89;63.57;94058.69;4994947;28;20042;-84
2023/01/13 05:02:33;;;;;;;6.78;5.50;;;;;;;3.54;63.54;94159.75;4993612;28;20076;-85
2023/01/13 05:04:59;;;;;;;6.85;5.50;;;;;;;3.59;63.23;94141.34;4996277;28;20046;-84
2023/01/13 05:07:24;;;;;;;6.85;5.60;;;;;;;3.64;63.48;94165.03;4979890;28;20026;-85
2023/01/13 05:09:49;;;;;;;5.97;5.22;;;;;;;3.47;63.43;94130.28;4991559;28;20308;-84
2023/01/13 05:17:43;;;;;;;6.57;5.57;;;;;;;3.73;62.34;94147.66;4992394;28;20058;-85
2023/01/13 05:20:10;;;;;;;6.07;5.47;;;;;;;3.21;62.75;94088.19;4974256;28;20037;-84
2023/01/13 05:25:26;;;;;;;6.30;5.15;;;;;;;3.73;62.87;94171.34;4990975;28;20076;-84
2023/01/13 05:27:58;;;;;;;6.35;5.20;;;;;;;3.51;62.95;94139.25;4975755;28;20488;-84
2023/01/13 05:30:26;;;;;;;6.45;5.65;;;;;;;3.65;62.84;94166.63;4974740;28;20041;-84
2023/01/13 05:32:52;;;;;;;7.60;5.18;;;;;;;3.61;63.09;94165.56;4989731;28;20034;-84
2023/01/13 05:35:17;;;;;;;6.57;5.72;;;;;;;3.57;63.34;94161.88;4980984;28;20026;-85
2023/01/13 05:37:44;;;;;;;7.70;6.32;;;;;;;2.85;64.02;94081.25;4979465;28;20022;-84
2023/01/13 05:43:20;;;;;;;8.15;7.03;;;;;;;3.45;64.38;94161.31;4991862;28;20133;-85
2023/01/13 05:45:51;;;;;;;9.75;7.28;;;;;;;3.55;64.04;94170.00;4992793;28;20053;-85
2023/01/13 05:48:18;;;;;;;9.15;7.22;;;;;;;3.47;64.31;94169.75;4982529;28;20695;-84
2023/01/13 05:50:44;;;;;;;10.57;7.97;;;;;;;3.43;64.10;94172.06;4989072;28;20883;-84
2023/01/13 05:53:09;;;;;;;10.07;7.32;;;;;;;3.13;64.68;94136.00;4980774;28;20503;-84
2023/01/13 05:55:38;;;;;;;12.93;9.27;;;;;;;3.20;64.57;94144.44;4991416;28;20183;-84
2023/01/13 05:58:03;;;;;;;11.80;8.98;;;;;;;2.98;64.91;94120.19;4990551;28;20025;-85
2023/01/13 06:00:29;;;;;;;11.38;8.45;;;;;;;2.85;64.77;94092.53;4975424;28;20045;-85
2023/01/13 06:02:54;;;;;;;12.68;9.10;;;;;;;2.93;64.62;94093.91;4970557;28;20061;-84
2023/01/13 06:05:20;;;;;;;23.10;12.55;;;;;;;3.51;64.21;94181.31;4981076;28;20038;-84
2023/01/13 06:07:45;;;;;;;15.18;10.85;;;;;;;3.02;64.76;94126.50;4994475;28;20117;-84
2023/01/13 06:10:11;;;;;;;20.50;11.95;;;;;;;2.49;64.89;94046.22;4992632;28;20033;-85
2023/01/13 06:12:36;;;;;;;25.95;12.95;;;;;;;3.28;65.22;94188.59;4979060;28;20730;-85
2023/01/13 06:15:05;;;;;;;18.75;11.30;;;;;;;3.37;64.89;94197.59;4977042;28;20031;-85
2023/01/13 06:17:30;;;;;;;17.73;10.82;;;;;;;2.93;64.51;94122.81;4974335;28;20077;-84
2023/01/13 06:19:56;;;;;;;13.77;8.73;;;;;;;3.35;64.75;94194.41;4974760;28;20149;-84
2023/01/13 06:22:34;;;;;;;9.93;7.85;;;;;;;3.35;65.18;94204.94;4991219;28;20388;-84
2023/01/13 06:25:00;;;;;;;12.90;8.27;;;;;;;3.39;64.91;94208.63;4989326;28;20407;-84
2023/01/13 06:27:29;;;;;;;18.50;11.02;;;;;;;2.68;64.97;94083.31;4974224;28;20037;-85
2023/01/13 06:29:55;;;;;;;26.38;13.38;;;;;;;2.68;64.73;94099.84;4978623;28;20042;-84
2023/01/13 06:32:32;;;;;;;25.55;13.23;;;;;;;3.39;64.66;94195.47;4989842;28;20030;-84
2023/01/13 06:35:07;;;;;;;25.98;13.00;;;;;;;2.84;64.88;94119.84;4977924;28;20046;-84
2023/01/13 06:37:35;;;;;;;14.32;9.40;;;;;;;3.11;64.83;94166.22;4973952;28;20485;-84
2023/01/13 06:40:05;;;;;;;18.95;10.40;;;;;;;3.27;65.48;94208.06;4980564;28;20033;-84
2023/01/13 06:45:42;;;;;;;19.90;11.13;;;;;;;3.15;65.77;94175.94;4880195;29;20440;-84
2023/01/13 06:48:07;;;;;;;22.23;12.55;;;;;;;3.37;65.28;94205.47;4866424;29;20040;-85
2023/01/13 06:50:33;;;;;;;13.70;9.88;;;;;;;2.96;65.97;94161.69;4932663;28;20038;-84
2023/01/13 06:52:58;;;;;;;16.33;9.85;;;;;;;3.16;66.49;94195.13;4985164;28;20050;-84
2023/01/13 06:55:24;;;;;;;23.45;11.98;;;;;;;2.70;65.84;94116.13;4970145;28;20029;-84
2023/01/13 06:57:53;;;;;;;13.10;9.35;;;;;;;2.63;66.42;94109.53;4967768;28;20516;-84
2023/01/13 07:00:20;;;;;;;13.52;9.32;;;;;;;2.82;66.43;94136.94;4968322;28;20038;-84
2023/01/13 07:02:48;;;;;;;9.95;7.15;;;;;;;3.08;66.07;94158.84;4982973;28;20061;-84
2023/01/13 07:05:15;;;;;;;13.70;8.43;;;;;;;3.33;65.97;94201.75;4989534;28;20038;-83
2023/01/13 07:07:42;;;;;;;12.30;8.52;;;;;;;3.38;65.92;94200.97;4973315;28;20437;-84
2023/01/13 07:10:18;;;;;;;9.38;7.80;;;;;;;3.25;65.57;94178.63;4989356;28;20141;-85
2023/01/13 07:15:31;;;;;;;10.60;7.55;;;;;;;3.28;65.81;94198.34;4991019;28;20100;-85
2023/01/13 07:17:58;;;;;;;9.50;7.57;;;;;;;3.14;66.39;94210.38;4986477;28;20046;-84
2023/01/13 07:20:24;;;;;;;10.35;7.72;;;;;;;3.14;67.28;94203.28;4986863;28;20408;-84
2023/01/13 07:22:53;;;;;;;11.05;8.05;;;;;;;3.31;66.31;94193.38;4975085;28;20385;-85
2023/01/13 07:25:18;;;;;;;18.73;9.23;;;;;;;3.20;65.57;94147.06;4977824;28;20034;-84
2023/01/13 07:27:47;;;;;;;9.68;7.53;;;;;;;2.70;65.64;94087.22;4951749;28;20030;-84
2023/01/13 07:30:13;;;;;;;8.82;7.15;;;;;;;2.00;65.33;93957.31;4973927;28;20161;-84
2023/01/13 07:32:38;;;;;;;10.43;7.95;;;;;;;3.06;65.38;94132.03;4981460;28;20137;-84
2023/01/13 07:35:04;;;;;;;8.82;6.75;;;;;;;3.24;66.41;94182.28;4972426;28;20045;-84
2023/01/13 07:37:32;;;;;;;13.02;7.75;;;;;;;3.38;66.33;94199.16;4982367;28;20077;-84
2023/01/13 07:39:58;;;;;;;11.85;8.80;;;;;;;3.45;65.81;94193.66;4969092;28;20056;-84
2023/01/13 07:45:09;;;;;;;9.27;7.38;;;;;;;3.47;64.87;94177.63;4987540;28;20092;-85
2023/01/13 07:47:34;;;;;;;9.57;7.22;;;;;;;2.96;65.05;94088.13;4983348;28;21232;-85
2023/01/13 07:49:59;;;;;;;24.88;14.90;;;;;;;2.69;65.54;94069.91;4985332;28;20050;-90
2023/01/13 07:52:48;;;;;;;;;;;;;;;;;;;;;
2023/01/13 07:55:15;;;;;;;37.33;17.75;;;;;;;2.98;65.69;94117.56;4985272;28;20035;-85
2023/01/13 07:57:40;;;;;;;40.10;23.05;;;;;;;3.04;66.04;94137.53;4981449;28;20452;-87
2023/01/13 08:00:06;;;;;;;55.33;25.15;;;;;;;3.71;65.72;94210.28;4987113;28;20037;-85
2023/01/13 08:02:33;;;;;;;16.13;11.88;;;;;;;3.01;65.09;94072.38;4966274;28;20038;-84
2023/01/13 08:04:58;;;;;;;14.23;11.48;;;;;;;3.77;64.79;94175.06;4967220;28;20054;-86
2023/01/13 08:07:24;;;;;;;18.30;13.32;;;;;;;3.62;63.95;94140.84;4984935;28;20036;-85
2023/01/13 08:09:52;;;;;;;18.45;12.02;;;;;;;3.58;63.99;94129.25;4979965;28;20807;-85
2023/01/13 08:15:02;;;;;;;14.63;10.70;;;;;;;3.98;63.69;94208.22;4981870;28;20041;-87
2023/01/13 08:17:28;;;;;;;15.60;11.05;;;;;;;4.06;63.50;94194.53;4988583;28;20609;-84
2023/01/13 08:19:53;;;;;;;16.55;11.30;;;;;;;4.29;62.58;94203.75;4989887;28;20125;-83
2023/01/13 08:22:19;;;;;;;13.77;10.20;;;;;;;4.24;63.03;94207.19;4990148;28;20030;-84
2023/01/13 08:24:45;;;;;;;16.70;12.27;;;;;;;3.80;62.52;94120.06;4972776;28;20532;-84
2023/01/13 08:27:10;;;;;;;15.43;10.88;;;;;;;4.03;62.39;94167.94;4978291;28;20041;-83
2023/01/13 08:29:35;;;;;;;32.08;17.60;;;;;;;4.12;62.63;94204.00;4964544;28;20140;-83
2023/01/13 08:32:04;;;;;;;26.92;16.27;;;;;;;3.92;62.79;94177.69;4972057;28;20472;-84
2023/01/13 08:34:30;;;;;;;21.50;14.43;;;;;;;3.67;63.04;94146.09;4987112;28;20033;-83
2023/01/13 08:36:55;;;;;;;29.73;15.80;;;;;;;3.57;64.56;94188.97;4970736;28;20037;-83
2023/01/13 08:39:22;;;;;;;19.23;11.18;;;;;;;3.73;65.35;94200.28;4988485;28;20452;-83
2023/01/13 08:41:57;;;;;;;13.75;10.60;;;;;;;3.82;64.23;94188.19;4992029;28;20030;-83
2023/01/13 08:44:28;;;;;;;22.63;13.02;;;;;;;3.85;64.66;94208.75;4989125;28;20038;-83
2023/01/13 08:46:54;;;;;;;16.05;11.93;;;;;;;4.07;63.72;94209.28;4969213;28;20033;-83
2023/01/13 08:49:20;;;;;;;18.42;13.00;;;;;;;3.86;63.69;94188.47;4972244;28;20322;-83
2023/01/13 08:51:46;;;;;;;23.95;16.52;;;;;;;3.82;64.76;94193.44;4977403;28;20030;-83
2023/01/13 08:54:13;;;;;;;18.25;12.32;;;;;;;3.99;63.63;94185.31;4988369;28;20607;-83
2023/01/13 08:56:40;;;;;;;17.48;11.82;;;;;;;3.65;63.17;94103.47;4968297;28;20381;-83
2023/01/13 08:59:08;;;;;;;20.73;15.55;;;;;;;3.15;63.34;94057.69;4972092;28;20046;-83
2023/01/13 09:01:34;;;;;;;22.95;15.32;;;;;;;4.35;62.89;94207.22;4985361;28;20131;-83
2023/01/13 09:04:02;;;;;;;21.90;14.45;;;;;;;3.87;62.15;94108.50;4976978;28;20625;-83
2023/01/13 09:06:28;;;;;;;16.85;11.18;;;;;;;3.31;61.69;94030.38;4987404;28;20053;-85
2023/01/13 09:08:54;;;;;;;16.15;12.23;;;;;;;4.27;61.81;94206.66;4972763;28;20150;-83
2023/01/13 09:14:16;;;;;;;16.73;12.05;;;;;;;4.16;63.02;94204.31;4990314;28;20065;-83
2023/01/13 09:16:42;;;;;;;17.63;11.90;;;;;;;4.24;63.57;94196.66;4990454;28;20149;-83
2023/01/13 09:19:07;;;;;;;15.43;11.75;;;;;;;4.28;62.77;94187.16;4989292;28;20026;-82
2023/01/13 09:21:32;;;;;;;16.75;12.02;;;;;;;4.25;62.36;94203.50;4977106;28;20030;-83
2023/01/13 09:23:58;;;;;;;17.38;11.43;;;;;;;4.26;62.62;94201.63;4975573;28;20034;-83
2023/01/13 09:26:23;;;;;;;15.30;9.85;;;;;;;4.25;62.01;94192.97;4993315;28;20049;-83
2023/01/13 09:28:49;;;;;;;12.68;8.13;;;;;;;3.78;61.36;94111.63;4973814;28;20097;-83
2023/01/13 09:31:14;;;;;;;13.80;10.23;;;;;;;4.12;61.33;94138.19;4971045;28;20030;-84
2023/01/13 09:36:24;;;;;;;9.63;7.10;;;;;;;4.45;62.14;94197.47;4981552;28;20057;-83
2023/01/13 09:38:49;;;;;;;7.97;6.47;;;;;;;3.65;62.34;94125.31;4988031;28;20038;-82
2023/01/13 09:44:15;;;;;;;8.13;6.45;;;;;;;4.27;61.79;94188.22;4988320;28;20068;-83
2023/01/13 09:46:48;;;;;;;46.17;41.60;;;;;;;4.35;61.93;94199.31;4958293;28;20038;-83
2023/01/13 09:49:20;;;;;;;10.52;7.15;;;;;;;3.62;61.29;94068.00;4976498;28;20037;-83
2023/01/13 09:52:07;;;;;;;143.82;81.53;;;;;;;4.38;61.87;94194.31;4967957;28;20265;-83
2023/01/13 09:54:56;;;;;;;18.92;14.80;;;;;;;4.73;60.66;94184.78;4989263;28;20069;-83
2023/01/13 09:57:23;;;;;;;11.55;7.57;;;;;;;4.74;60.54;94173.97;4980222;28;20552;-83
2023/01/13 09:59:49;;;;;;;6.25;4.70;;;;;;;4.15;60.16;94090.31;4988242;28;20038;-83
2023/01/13 10:02:23;;;;;;;8.18;4.47;;;;;;;4.64;59.86;94179.25;4986837;28;20043;-83
2023/01/13 10:05:12;;;;;;;8.13;5.33;;;;;;;4.81;59.86;94173.69;4988701;28;20740;-83
2023/01/13 10:08:05;;;;;;;20.15;13.05;;;;;;;4.84;59.19;94181.84;4974324;28;20272;-83
2023/01/13 10:10:38;;;;;;;7.05;6.07;;;;;;;4.69;59.83;94179.25;4969438;28;20069;-84
2023/01/13 10:13:14;;;;;;;14.02;12.73;;;;;;;4.34;59.50;94084.50;4979013;28;20022;-84
2023/01/13 10:15:53;;;;;;;9.45;7.85;;;;;;;4.25;59.27;94073.72;4987813;28;20031;-84
2023/01/13 10:18:28;;;;;;;8.68;6.20;;;;;;;4.56;58.86;94113.94;4989559;28;20129;-84
2023/01/13 10:21:11;;;;;;;8.73;4.97;;;;;;;4.56;60.30;94171.88;4989940;28;20034;-84
2023/01/13 10:23:57;;;;;;;10.82;7.43;;;;;;;4.87;58.61;94162.06;4989473;28;20125;-83
2023/01/13 10:26:55;;;;;;;18.60;14.90;;;;;;;4.79;58.93;94134.44;4987596;28;20484;-84
2023/01/13 10:29:29;;;;;;;9.23;6.43;;;;;;;4.95;59.06;94164.13;4978742;28;20042;-84
2023/01/13 10:31:56;;;;;;;8.20;5.43;;;;;;;4.92;58.84;94154.94;4980453;28;20069;-84
2023/01/13 10:34:22;;;;;;;10.38;6.25;;;;;;;4.74;59.09;94168.69;4980780;28;20515;-84
2023/01/13 10:37:05;;;;;;;12.52;6.25;;;;;;;4.27;59.67;94098.69;4989375;28;20038;-84
2023/01/13 10:39:43;;;;;;;7.40;4.63;;;;;;;3.99;60.32;94136.13;4979918;28;20685;-84
2023/01/13 10:42:18;;;;;;;10.23;6.47;;;;;;;3.98;62.28;94160.06;4972235;28;20042;-84
2023/01/13 10:44:53;;;;;;;10.20;5.07;;;;;;;4.42;61.09;94152.41;4969125;28;20074;-83
2023/01/13 10:47:27;;;;;;;7.07;4.35;;;;;;;4.47;59.54;94152.41;4976923;28;20044;-84
2023/01/13 10:50:00;;;;;;;5.13;3.72;;;;;;;4.53;59.01;94138.19;4976171;28;20054;-84
2023/01/13 10:52:28;;;;;;;11.43;8.23;;;;;;;3.77;59.63;94065.31;4986635;28;20027;-84
2023/01/13 10:54:58;;;;;;;6.45;5.68;;;;;;;4.26;60.45;94149.78;4968323;28;20046;-84
2023/01/13 10:57:31;;;;;;;11.60;4.18;;;;;;;2.77;60.32;93929.41;4987153;28;20037;-83
2023/01/13 11:00:04;;;;;;;6.70;3.53;;;;;;;3.73;59.76;94026.66;4969646;28;20208;-85
2023/01/13 11:02:34;;;;;;;6.03;2.80;;;;;;;4.12;58.55;94051.34;4986503;28;20464;-84
2023/01/13 11:05:16;;;;;;;8.45;4.28;;;;;;;4.09;58.17;94051.88;4987535;28;20038;-85
2023/01/13 11:07:49;;;;;;;3.50;3.17;;;;;;;4.57;58.81;94144.50;4973907;28;20477;-84
2023/01/13 11:10:22;;;;;;;3.97;2.80;;;;;;;3.48;61.61;94156.31;4990348;28;20045;-84
2023/01/13 11:13:01;;;;;;;3.72;2.88;;;;;;;4.19;60.95;94148.47;4988666;28;20946;-84
2023/01/13 11:15:49;;;;;;;3.65;2.95;;;;;;;4.46;58.34;94143.72;4974682;28;20026;-83
2023/01/13 11:18:23;;;;;;;2.60;2.40;;;;;;;4.77;58.49;94130.47;4975128;28;20520;-83
2023/01/13 11:20:55;;;;;;;6.65;3.00;;;;;;;5.03;57.45;94135.41;4976897;28;21022;-82
2023/01/13 11:23:48;;;;;;;4.05;2.88;;;;;;;4.62;57.25;94097.06;4973767;28;20042;-83
2023/01/13 11:26:27;;;;;;;4.13;3.72;;;;;;;3.83;59.61;94063.50;4991521;28;20045;-82
2023/01/13 11:29:14;;;;;;;6.38;3.85;;;;;;;4.26;59.54;94136.59;4963969;28;20052;-82
2023/01/13 11:31:47;;;;;;;4.18;3.35;;;;;;;4.58;59.13;94132.91;4989014;28;20030;-82
2023/01/13 11:34:41;;;;;;;7.05;3.90;;;;;;;4.99;58.26;94133.56;4975396;28;20046;-81
2023/01/13 11:37:19;;;;;;;5.82;4.43;;;;;;;4.97;57.72;94130.41;4982617;28;20052;-83
2023/01/13 11:39:45;;;;;;;7.93;4.63;;;;;;;5.21;57.04;94131.34;4976188;28;20053;-82
2023/01/13 11:42:31;;;;;;;4.75;3.97;;;;;;;5.30;57.08;94100.72;4991659;28;20468;-82
2023/01/13 11:45:32;;;;;;;5.50;4.00;;;;;;;5.75;55.75;94128.66;4979416;28;20042;-83
2023/01/13 11:48:02;;;;;;;3.95;3.53;;;;;;;5.90;54.31;94117.97;4957947;28;20050;-82
2023/01/13 11:50:49;;;;;;;6.38;4.15;;;;;;;5.91;54.71;94122.22;4957055;28;20524;-84
2023/01/13 11:53:19;;;;;;;5.43;4.50;;;;;;;6.00;54.38;94117.91;4951842;28;20054;-82
2023/01/13 11:56:10;;;;;;;14.65;9.40;;;;;;;5.76;54.84;94106.47;4958136;28;20384;-83
2023/01/13 11:58:35;;;;;;;12.13;7.95;;;;;;;5.89;54.80;94119.03;4974341;28;20022;-82
2023/01/13 12:01:19;;;;;;;10.77;6.45;;;;;;;5.78;55.03;94124.66;4984566;28;20408;-82
2023/01/13 12:04:17;;;;;;;11.98;6.80;;;;;;;5.80;54.89;94107.50;4989580;28;20479;-82
2023/01/13 12:06:46;;;;;;;9.43;6.30;;;;;;;5.82;54.35;94115.16;4973598;28;20445;-82
2023/01/13 12:09:43;;;;;;;8.00;5.50;;;;;;;5.84;54.50;94105.88;4988872;28;20510;-82
2023/01/13 12:12:23;;;;;;;5.82;4.43;;;;;;;5.50;55.03;94112.97;4991309;28;20416;-82
2023/01/13 12:15:11;;;;;;;8.95;5.32;;;;;;;5.45;55.58;94105.91;4977288;28;20050;-85
2023/01/13 12:18:15;;;;;;;140.23;64.43;;;;;;;4.69;56.68;94058.84;4939302;28;20077;-85
2023/01/13 12:21:14;;;;;;;9.23;6.88;;;;;;;4.94;57.02;94108.00;4973046;28;20030;-84
2023/01/13 12:23:57;;;;;;;8.93;6.68;;;;;;;5.32;56.58;94100.44;4972734;28;20034;-84
2023/01/13 12:26:22;;;;;;;8.98;7.68;;;;;;;5.48;56.64;94096.66;4972120;28;20132;-84
2023/01/13 12:28:55;;;;;;;11.68;9.13;;;;;;;5.00;56.31;94022.56;4990753;28;20407;-85
2023/01/13 12:31:22;;;;;;;13.82;10.27;;;;;;;5.39;57.25;94087.72;4987616;28;20431;-84
2023/01/13 12:33:50;;;;;;;10.68;7.75;;;;;;;5.49;57.53;94109.56;4989837;28;20077;-85
2023/01/13 12:36:16;;;;;;;10.48;8.20;;;;;;;5.59;56.57;94092.88;4989623;28;20386;-84
2023/01/13 12:38:48;;;;;;;10.05;7.60;;;;;;;5.72;56.16;94100.19;4974677;28;20037;-86
2023/01/13 12:41:30;;;;;;;19.75;10.45;;;;;;;5.84;56.10;94108.53;4987477;28;20057;-84
2023/01/13 12:46:59;;;;;;;9.85;8.02;;;;;;;5.79;55.51;94076.09;4989707;28;20033;-85